sensor_id;sensor_type;location;lat;lon;timestamp;pressure;altitude;pressure_sealevel;temperature;humidity
47897;BME280;39629;51.400;5.494;2023-04-26T00:01:36;101797.59;;;1.22;100.00
47897;BME280;39629;51.400;5.494;2023-04-26T00:06:38;101796.56;;;1.18;100.00
47897;BME280;39629;51.400;5.494;2023-04-26T00:11:41;101798.53;;;1.06;100.00
47897;BME280;39629;51.400;5.494;2023-04-26T00:16:42;101793.13;;;1.02;100.00
47897;BME280;39629;51.400;5.494;2023-04-26T00:21:44;101802.28;;;0.95;100.00
47897;BME280;39629;51.400;5.494;2023-04-26T00:26:47;101799.13;;;0.84;100.00
47897;BME280;39629;51.400;5.494;2023-04-26T00:31:48;101801.22;;;0.75;100.00
47897;BME280;39629;51.400;5.494;2023-04-26T00:36:50;101805.75;;;0.62;100.00
47897;BME280;39629;51.400;5.494;2023-04-26T00:41:53;101808.34;;;0.62;100.00
47897;BME280;39629;51.400;5.494;2023-04-26T00:46:54;101802.22;;;0.60;100.00
47897;BME280;39629;51.400;5.494;2023-04-26T00:51:56;101804.66;;;0.57;100.00
47897;BME280;39629;51.400;5.494;2023-04-26T00:56:59;101801.63;;;0.49;100.00
47897;BME280;39629;51.400;5.494;2023-04-26T01:02:01;101801.28;;;0.27;100.00
47897;BME280;39629;51.400;5.494;2023-04-26T01:07:03;101793.66;;;0.13;100.00
47897;BME280;39629;51.400;5.494;2023-04-26T01:12:08;101798.09;;;0.16;100.00
47897;BME280;39629;51.400;5.494;2023-04-26T01:17:11;101806.75;;;0.17;100.00
47897;BME280;39629;51.400;5.494;2023-04-26T01:22:13;101795.34;;;0.13;100.00
47897;BME280;39629;51.400;5.494;2023-04-26T01:27:17;101808.09;;;-0.07;100.00
47897;BME280;39629;51.400;5.494;2023-04-26T01:32:21;101808.72;;;-0.11;100.00
47897;BME280;39629;51.400;5.494;2023-04-26T01:37:23;101805.78;;;-0.17;100.00
47897;BME280;39629;51.400;5.494;2023-04-26T01:42:27;101802.59;;;-0.43;100.00
47897;BME280;39629;51.400;5.494;2023-04-26T01:47:28;101805.44;;;-0.38;100.00
47897;BME280;39629;51.400;5.494;2023-04-26T01:52:30;101801.69;;;-0.43;100.00
47897;BME280;39629;51.400;5.494;2023-04-26T01:57:33;101800.81;;;-0.44;100.00
47897;BME280;39629;51.400;5.494;2023-04-26T02:02:35;101807.31;;;-0.50;100.00
47897;BME280;39629;51.400;5.494;2023-04-26T02:07:37;101807.06;;;-0.55;100.00
47897;BME280;39629;51.400;5.494;2023-04-26T02:12:40;101811.63;;;-0.51;100.00
47897;BME280;39629;51.400;5.494;2023-04-26T02:17:42;101810.72;;;-0.81;100.00
47897;BME280;39629;51.400;5.494;2023-04-26T02:22:43;101806.88;;;-0.73;100.00
47897;BME280;39629;51.400;5.494;2023-04-26T02:27:50;101813.22;;;-0.68;100.00
47897;BME280;39629;51.400;5.494;2023-04-26T02:32:52;101803.06;;;-0.80;100.00
47897;BME280;39629;51.400;5.494;2023-04-26T02:37:54;101802.88;;;-0.83;100.00
47897;BME280;39629;51.400;5.494;2023-04-26T02:42:57;101806.31;;;-0.97;100.00
47897;BME280;39629;51.400;5.494;2023-04-26T02:47:59;101796.38;;;-0.91;100.00
47897;BME280;39629;51.400;5.494;2023-04-26T02:53:00;101802.16;;;-0.95;100.00
47897;BME280;39629;51.400;5.494;2023-04-26T02:58:04;101794.91;;;-1.16;100.00
47897;BME280;39629;51.400;5.494;2023-04-26T03:03:07;101785.91;;;-1.08;100.00
47897;BME280;39629;51.400;5.494;2023-04-26T03:08:08;101777.91;;;-1.12;100.00
47897;BME280;39629;51.400;5.494;2023-04-26T03:13:11;101782.06;;;-1.14;100.00
47897;BME280;39629;51.400;5.494;2023-04-26T03:18:14;101781.81;;;-1.19;100.00
47897;BME280;39629;51.400;5.494;2023-04-26T03:23:16;101783.78;;;-1.15;100.00
47897;BME280;39629;51.400;5.494;2023-04-26T03:28:19;101772.44;;;-1.17;100.00
47897;BME280;39629;51.400;5.494;2023-04-26T03:33:20;101789.47;;;-1.20;100.00
47897;BME280;39629;51.400;5.494;2023-04-26T03:38:22;101784.25;;;-1.35;100.00
47897;BME280;39629;51.400;5.494;2023-04-26T03:43:26;101770.47;;;-1.21;100.00
47897;BME280;39629;51.400;5.494;2023-04-26T03:48:27;101777.94;;;-1.26;100.00
47897;BME280;39629;51.400;5.494;2023-04-26T03:53:29;101770.28;;;-1.24;100.00
47897;BME280;39629;51.400;5.494;2023-04-26T03:58:32;101779.34;;;-1.31;100.00
47897;BME280;39629;51.400;5.494;2023-04-26T04:03:35;101787.88;;;-1.47;100.00
47897;BME280;39629;51.400;5.494;2023-04-26T04:08:37;101781.50;;;-1.39;100.00
47897;BME280;39629;51.400;5.494;2023-04-26T04:13:40;101783.38;;;-1.36;100.00
47897;BME280;39629;51.400;5.494;2023-04-26T04:18:42;101779.78;;;-1.38;100.00
47897;BME280;39629;51.400;5.494;2023-04-26T04:23:44;101786.06;;;-1.34;100.00
47897;BME280;39629;51.400;5.494;2023-04-26T04:28:48;101777.91;;;-1.41;100.00
47897;BME280;39629;51.400;5.494;2023-04-26T04:33:51;101790.59;;;-1.30;100.00
47897;BME280;39629;51.400;5.494;2023-04-26T04:38:53;101787.50;;;-1.25;100.00
47897;BME280;39629;51.400;5.494;2023-04-26T04:43:57;101790.91;;;-1.11;100.00
47897;BME280;39629;51.400;5.494;2023-04-26T04:49:00;101789.06;;;-0.98;100.00
47897;BME280;39629;51.400;5.494;2023-04-26T04:54:08;101799.84;;;-0.76;100.00
47897;BME280;39629;51.400;5.494;2023-04-26T04:59:12;101806.50;;;-0.79;100.00
47897;BME280;39629;51.400;5.494;2023-04-26T05:04:14;101806.69;;;-0.46;100.00
47897;BME280;39629;51.400;5.494;2023-04-26T05:09:18;101811.50;;;-0.23;100.00
47897;BME280;39629;51.400;5.494;2023-04-26T05:14:21;101797.59;;;0.07;100.00
47897;BME280;39629;51.400;5.494;2023-04-26T05:19:22;101804.78;;;0.44;100.00
47897;BME280;39629;51.400;5.494;2023-04-26T05:24:28;101804.88;;;0.95;100.00
47897;BME280;39629;51.400;5.494;2023-04-26T05:29:31;101803.59;;;1.38;100.00
47897;BME280;39629;51.400;5.494;2023-04-26T05:34:43;101808.97;;;1.77;100.00
47897;BME280;39629;51.400;5.494;2023-04-26T05:39:49;101809.38;;;1.86;100.00
47897;BME280;39629;51.400;5.494;2023-04-26T05:44:57;101818.22;;;2.08;100.00
47897;BME280;39629;51.400;5.494;2023-04-26T05:49:59;101808.16;;;1.78;100.00
47897;BME280;39629;51.400;5.494;2023-04-26T05:55:00;101816.06;;;1.99;100.00
47897;BME280;39629;51.400;5.494;2023-04-26T06:00:06;101817.69;;;2.15;100.00
47897;BME280;39629;51.400;5.494;2023-04-26T06:05:14;101804.75;;;2.54;100.00
47897;BME280;39629;51.400;5.494;2023-04-26T06:10:16;101808.50;;;3.19;100.00
47897;BME280;39629;51.400;5.494;2023-04-26T06:15:20;101815.56;;;3.64;100.00
47897;BME280;39629;51.400;5.494;2023-04-26T06:20:21;101821.19;;;3.96;100.00
47897;BME280;39629;51.400;5.494;2023-04-26T06:25:23;101822.00;;;3.95;100.00
47897;BME280;39629;51.400;5.494;2023-04-26T06:30:26;101824.19;;;4.05;100.00
47897;BME280;39629;51.400;5.494;2023-04-26T06:35:28;101830.72;;;4.64;100.00
47897;BME280;39629;51.400;5.494;2023-04-26T06:40:30;101832.50;;;5.37;100.00
47897;BME280;39629;51.400;5.494;2023-04-26T06:45:34;101836.22;;;5.97;100.00
47897;BME280;39629;51.400;5.494;2023-04-26T06:50:36;101834.34;;;5.93;100.00
47897;BME280;39629;51.400;5.494;2023-04-26T06:55:38;101830.59;;;5.85;100.00
47897;BME280;39629;51.400;5.494;2023-04-26T07:00:41;101826.13;;;5.82;100.00
47897;BME280;39629;51.400;5.494;2023-04-26T07:05:43;101832.16;;;6.07;100.00
47897;BME280;39629;51.400;5.494;2023-04-26T07:10:44;101831.09;;;6.58;100.00
47897;BME280;39629;51.400;5.494;2023-04-26T07:15:47;101825.59;;;7.09;100.00
47897;BME280;39629;51.400;5.494;2023-04-26T07:20:49;101829.66;;;6.99;100.00
47897;BME280;39629;51.400;5.494;2023-04-26T07:25:50;101824.94;;;7.52;100.00
47897;BME280;39629;51.400;5.494;2023-04-26T07:30:53;101831.78;;;7.46;100.00
47897;BME280;39629;51.400;5.494;2023-04-26T07:35:56;101836.34;;;7.89;100.00
47897;BME280;39629;51.400;5.494;2023-04-26T07:40:58;101822.06;;;7.77;100.00
47897;BME280;39629;51.400;5.494;2023-04-26T07:46:02;101816.63;;;8.05;100.00
47897;BME280;39629;51.400;5.494;2023-04-26T07:51:07;101806.16;;;8.87;100.00
47897;BME280;39629;51.400;5.494;2023-04-26T07:56:09;101803.31;;;8.76;100.00
47897;BME280;39629;51.400;5.494;2023-04-26T08:01:12;101808.31;;;8.64;100.00
47897;BME280;39629;51.400;5.494;2023-04-26T08:06:13;101821.88;;;8.44;100.00
47897;BME280;39629;51.400;5.494;2023-04-26T08:11:15;101833.78;;;8.69;100.00
47897;BME280;39629;51.400;5.494;2023-04-26T08:16:18;101837.59;;;8.85;100.00
47897;BME280;39629;51.400;5.494;2023-04-26T08:21:20;101840.28;;;8.87;100.00
47897;BME280;39629;51.400;5.494;2023-04-26T08:26:21;101831.72;;;8.96;100.00
47897;BME280;39629;51.400;5.494;2023-04-26T08:31:24;101826.88;;;8.73;100.00
47897;BME280;39629;51.400;5.494;2023-04-26T08:36:26;101821.81;;;8.84;100.00
47897;BME280;39629;51.400;5.494;2023-04-26T08:41:30;101827.03;;;8.82;100.00
47897;BME280;39629;51.400;5.494;2023-04-26T08:46:45;101818.84;;;9.59;100.00
47897;BME280;39629;51.400;5.494;2023-04-26T08:51:51;101807.84;;;9.29;100.00
47897;BME280;39629;51.400;5.494;2023-04-26T08:56:54;101812.84;;;9.17;100.00
47897;BME280;39629;51.400;5.494;2023-04-26T09:02:00;101814.44;;;9.09;100.00
47897;BME280;39629;51.400;5.494;2023-04-26T09:07:04;101818.13;;;9.18;100.00
47897;BME280;39629;51.400;5.494;2023-04-26T09:12:07;101809.66;;;9.33;100.00
47897;BME280;39629;51.400;5.494;2023-04-26T09:17:29;101809.19;;;9.59;100.00
47897;BME280;39629;51.400;5.494;2023-04-26T09:22:32;101808.97;;;8.96;100.00
47897;BME280;39629;51.400;5.494;2023-04-26T09:27:35;101802.19;;;9.57;100.00
47897;BME280;39629;51.400;5.494;2023-04-26T09:32:50;101807.28;;;9.47;100.00
47897;BME280;39629;51.400;5.494;2023-04-26T09:37:53;101803.50;;;9.85;100.00
47897;BME280;39629;51.400;5.494;2023-04-26T09:42:57;101807.94;;;10.50;100.00
47897;BME280;39629;51.400;5.494;2023-04-26T09:48:14;101806.44;;;10.71;100.00
47897;BME280;39629;51.400;5.494;2023-04-26T09:53:25;101802.63;;;10.47;78.29
47897;BME280;39629;51.400;5.494;2023-04-26T09:58:27;101801.84;;;10.54;67.41
47897;BME280;39629;51.400;5.494;2023-04-26T10:03:33;101796.44;;;10.44;69.87
47897;BME280;39629;51.400;5.494;2023-04-26T10:08:35;101792.25;;;10.60;66.31
47897;BME280;39629;51.400;5.494;2023-04-26T10:13:36;101797.97;;;10.26;64.40
47897;BME280;39629;51.400;5.494;2023-04-26T10:18:39;101789.72;;;10.67;65.78
47897;BME280;39629;51.400;5.494;2023-04-26T10:23:41;101791.63;;;10.81;69.13
47897;BME280;39629;51.400;5.494;2023-04-26T10:28:53;101787.75;;;11.24;67.33
47897;BME280;39629;51.400;5.494;2023-04-26T10:34:24;101775.09;;;11.92;64.72
47897;BME280;39629;51.400;5.494;2023-04-26T10:39:25;101782.28;;;12.20;58.34
47897;BME280;39629;51.400;5.494;2023-04-26T10:44:37;101767.50;;;12.47;57.54
47897;BME280;39629;51.400;5.494;2023-04-26T10:49:44;101760.38;;;12.32;50.19
47897;BME280;39629;51.400;5.494;2023-04-26T10:54:53;101761.72;;;11.65;47.89
47897;BME280;39629;51.400;5.494;2023-04-26T11:00:17;101749.28;;;11.48;45.71
47897;BME280;39629;51.400;5.494;2023-04-26T11:05:35;101753.09;;;11.93;51.31
47897;BME280;39629;51.400;5.494;2023-04-26T11:10:37;101764.03;;;11.26;51.02
47897;BME280;39629;51.400;5.494;2023-04-26T11:15:40;101757.00;;;12.64;48.73
47897;BME280;39629;51.400;5.494;2023-04-26T11:20:43;101748.16;;;12.52;46.11
47897;BME280;39629;51.400;5.494;2023-04-26T11:25:45;101749.03;;;12.59;48.08
47897;BME280;39629;51.400;5.494;2023-04-26T11:30:48;101738.47;;;12.51;46.50
47897;BME280;39629;51.400;5.494;2023-04-26T11:35:52;101743.56;;;12.13;45.73
47897;BME280;39629;51.400;5.494;2023-04-26T11:40:56;101737.81;;;11.43;48.84
47897;BME280;39629;51.400;5.494;2023-04-26T11:45:58;101728.03;;;11.31;49.53
47897;BME280;39629;51.400;5.494;2023-04-26T11:51:03;101733.75;;;11.88;48.79
47897;BME280;39629;51.400;5.494;2023-04-26T11:56:12;101722.63;;;12.57;47.17
47897;BME280;39629;51.400;5.494;2023-04-26T12:01:22;101730.56;;;12.54;43.88
47897;BME280;39629;51.400;5.494;2023-04-26T12:06:40;101732.41;;;11.24;48.13
47897;BME280;39629;51.400;5.494;2023-04-26T12:11:47;101747.16;;;11.04;49.65
47897;BME280;39629;51.400;5.494;2023-04-26T12:16:49;101738.44;;;11.11;49.59
47897;BME280;39629;51.400;5.494;2023-04-26T12:21:52;101732.56;;;11.45;48.63
47897;BME280;39629;51.400;5.494;2023-04-26T12:26:55;101731.19;;;10.88;49.41
47897;BME280;39629;51.400;5.494;2023-04-26T12:31:56;101744.38;;;10.90;50.35
47897;BME280;39629;51.400;5.494;2023-04-26T12:36:59;101742.22;;;11.43;49.17
47897;BME280;39629;51.400;5.494;2023-04-26T12:42:01;101735.91;;;11.23;48.42
47897;BME280;39629;51.400;5.494;2023-04-26T12:47:03;101733.97;;;12.29;48.21
47897;BME280;39629;51.400;5.494;2023-04-26T12:52:09;101733.97;;;12.38;46.17
47897;BME280;39629;51.400;5.494;2023-04-26T12:57:10;101744.16;;;11.67;47.84
47897;BME280;39629;51.400;5.494;2023-04-26T13:02:13;101738.81;;;11.57;50.78
47897;BME280;39629;51.400;5.494;2023-04-26T13:07:16;101735.91;;;11.22;49.23
47897;BME280;39629;51.400;5.494;2023-04-26T13:12:18;101731.16;;;11.99;46.73
47897;BME280;39629;51.400;5.494;2023-04-26T13:17:20;101736.16;;;11.57;46.27
47897;BME280;39629;51.400;5.494;2023-04-26T13:22:23;101726.59;;;11.69;45.04
47897;BME280;39629;51.400;5.494;2023-04-26T13:27:24;101737.47;;;12.34;44.69
47897;BME280;39629;51.400;5.494;2023-04-26T13:32:28;101741.03;;;12.36;46.46
47897;BME280;39629;51.400;5.494;2023-04-26T13:37:31;101732.25;;;12.43;44.40
47897;BME280;39629;51.400;5.494;2023-04-26T13:42:32;101736.84;;;13.14;42.45
47897;BME280;39629;51.400;5.494;2023-04-26T13:47:34;101732.19;;;12.31;45.35
47897;BME280;39629;51.400;5.494;2023-04-26T13:52:37;101733.13;;;12.36;46.67
47897;BME280;39629;51.400;5.494;2023-04-26T13:57:38;101737.34;;;12.07;46.72
47897;BME280;39629;51.400;5.494;2023-04-26T14:02:40;101730.22;;;11.89;47.78
47897;BME280;39629;51.400;5.494;2023-04-26T14:07:43;101730.13;;;11.74;47.18
47897;BME280;39629;51.400;5.494;2023-04-26T14:12:44;101722.19;;;11.65;47.05
47897;BME280;39629;51.400;5.494;2023-04-26T14:17:46;101724.94;;;11.91;47.79
47897;BME280;39629;51.400;5.494;2023-04-26T14:22:49;101730.88;;;11.53;45.53
47897;BME280;39629;51.400;5.494;2023-04-26T14:27:52;101725.84;;;11.87;47.44
47897;BME280;39629;51.400;5.494;2023-04-26T14:32:53;101733.56;;;11.61;46.21
47897;BME280;39629;51.400;5.494;2023-04-26T14:37:56;101730.19;;;11.80;45.17
47897;BME280;39629;51.400;5.494;2023-04-26T14:42:58;101722.38;;;11.97;48.95
47897;BME280;39629;51.400;5.494;2023-04-26T14:47:59;101723.06;;;11.71;47.74
47897;BME280;39629;51.400;5.494;2023-04-26T14:53:02;101717.69;;;11.54;47.32
47897;BME280;39629;51.400;5.494;2023-04-26T14:58:04;101710.63;;;11.46;47.91
47897;BME280;39629;51.400;5.494;2023-04-26T15:03:06;101719.34;;;11.38;48.12
47897;BME280;39629;51.400;5.494;2023-04-26T15:08:09;101716.56;;;11.21;48.75
47897;BME280;39629;51.400;5.494;2023-04-26T15:13:10;101710.53;;;11.35;48.87
47897;BME280;39629;51.400;5.494;2023-04-26T15:18:12;101708.16;;;11.70;50.48
47897;BME280;39629;51.400;5.494;2023-04-26T15:23:14;101702.41;;;11.08;48.69
47897;BME280;39629;51.400;5.494;2023-04-26T15:28:16;101699.38;;;11.74;48.50
47897;BME280;39629;51.400;5.494;2023-04-26T15:33:18;101697.03;;;10.98;47.05
47897;BME280;39629;51.400;5.494;2023-04-26T15:38:20;101698.56;;;11.89;48.26
47897;BME280;39629;51.400;5.494;2023-04-26T15:43:22;101699.41;;;11.82;45.91
47897;BME280;39629;51.400;5.494;2023-04-26T15:48:23;101704.38;;;11.36;46.79
47897;BME280;39629;51.400;5.494;2023-04-26T15:53:27;101688.09;;;12.05;48.53
47897;BME280;39629;51.400;5.494;2023-04-26T15:58:29;101687.06;;;11.70;46.53
47897;BME280;39629;51.400;5.494;2023-04-26T16:03:30;101693.97;;;11.57;47.96
47897;BME280;39629;51.400;5.494;2023-04-26T16:08:33;101696.47;;;11.33;48.17
47897;BME280;39629;51.400;5.494;2023-04-26T16:13:35;101701.84;;;11.50;48.16
47897;BME280;39629;51.400;5.494;2023-04-26T16:18:37;101699.88;;;11.22;49.76
47897;BME280;39629;51.400;5.494;2023-04-26T16:23:40;101700.59;;;11.01;49.09
47897;BME280;39629;51.400;5.494;2023-04-26T16:28:42;101703.38;;;11.21;47.81
47897;BME280;39629;51.400;5.494;2023-04-26T16:33:44;101692.81;;;11.15;46.55
47897;BME280;39629;51.400;5.494;2023-04-26T16:38:47;101686.63;;;11.12;48.56
47897;BME280;39629;51.400;5.494;2023-04-26T16:43:48;101679.38;;;10.87;48.80
47897;BME280;39629;51.400;5.494;2023-04-26T16:48:51;101680.38;;;11.02;49.44
47897;BME280;39629;51.400;5.494;2023-04-26T16:53:54;101684.00;;;11.13;49.82
47897;BME280;39629;51.400;5.494;2023-04-26T16:58:56;101686.03;;;10.56;50.64
47897;BME280;39629;51.400;5.494;2023-04-26T17:03:58;101700.13;;;10.56;51.52
47897;BME280;39629;51.400;5.494;2023-04-26T17:09:00;101690.47;;;10.59;50.85
47897;BME280;39629;51.400;5.494;2023-04-26T17:14:03;101698.16;;;10.38;52.53
47897;BME280;39629;51.400;5.494;2023-04-26T17:19:05;101697.63;;;10.70;52.25
47897;BME280;39629;51.400;5.494;2023-04-26T17:24:08;101706.47;;;10.03;52.76
47897;BME280;39629;51.400;5.494;2023-04-26T17:29:09;101706.22;;;10.55;55.47
47897;BME280;39629;51.400;5.494;2023-04-26T17:34:11;101715.03;;;9.87;52.74
47897;BME280;39629;51.400;5.494;2023-04-26T17:39:14;101714.31;;;9.99;55.30
47897;BME280;39629;51.400;5.494;2023-04-26T17:44:16;101714.06;;;9.80;55.85
47897;BME280;39629;51.400;5.494;2023-04-26T17:49:18;101719.13;;;9.66;56.91
47897;BME280;39629;51.400;5.494;2023-04-26T17:54:22;101726.78;;;9.52;55.44
47897;BME280;39629;51.400;5.494;2023-04-26T17:59:24;101719.72;;;9.48;55.32
47897;BME280;39629;51.400;5.494;2023-04-26T18:04:25;101724.56;;;9.24;55.22
47897;BME280;39629;51.400;5.494;2023-04-26T18:09:28;101720.91;;;9.15;55.84
47897;BME280;39629;51.400;5.494;2023-04-26T18:14:30;101731.44;;;9.17;58.10
47897;BME280;39629;51.400;5.494;2023-04-26T18:19:31;101736.22;;;9.41;59.33
47897;BME280;39629;51.400;5.494;2023-04-26T18:24:34;101746.00;;;8.99;58.28
47897;BME280;39629;51.400;5.494;2023-04-26T18:29:36;101744.34;;;9.03;61.80
47897;BME280;39629;51.400;5.494;2023-04-26T18:34:37;101750.16;;;8.90;59.52
47897;BME280;39629;51.400;5.494;2023-04-26T18:39:40;101753.66;;;8.89;64.62
47897;BME280;39629;51.400;5.494;2023-04-26T18:44:42;101749.09;;;8.78;60.94
47897;BME280;39629;51.400;5.494;2023-04-26T18:49:43;101757.66;;;8.68;62.95
47897;BME280;39629;51.400;5.494;2023-04-26T18:54:46;101766.25;;;8.61;64.12
47897;BME280;39629;51.400;5.494;2023-04-26T18:59:48;101766.00;;;8.48;65.78
47897;BME280;39629;51.400;5.494;2023-04-26T19:04:49;101764.03;;;8.38;68.49
47897;BME280;39629;51.400;5.494;2023-04-26T19:09:54;101776.19;;;8.33;71.04
47897;BME280;39629;51.400;5.494;2023-04-26T19:14:56;101772.59;;;8.29;72.69
47897;BME280;39629;51.400;5.494;2023-04-26T19:19:57;101788.91;;;8.16;70.45
47897;BME280;39629;51.400;5.494;2023-04-26T19:25:00;101785.38;;;8.14;76.66
47897;BME280;39629;51.400;5.494;2023-04-26T19:30:05;101793.78;;;7.99;73.98
47897;BME280;39629;51.400;5.494;2023-04-26T19:35:07;101796.06;;;7.85;74.02
47897;BME280;39629;51.400;5.494;2023-04-26T19:40:10;101795.22;;;7.86;74.76
47897;BME280;39629;51.400;5.494;2023-04-26T19:45:12;101794.28;;;7.84;75.97
47897;BME280;39629;51.400;5.494;2023-04-26T19:50:13;101799.38;;;7.76;76.42
47897;BME280;39629;51.400;5.494;2023-04-26T19:55:16;101807.19;;;7.75;78.36
47897;BME280;39629;51.400;5.494;2023-04-26T20:00:19;101804.44;;;7.70;79.85
47897;BME280;39629;51.400;5.494;2023-04-26T20:05:20;101814.59;;;7.58;82.18
47897;BME280;39629;51.400;5.494;2023-04-26T20:10:23;101812.75;;;7.54;88.82
47897;BME280;39629;51.400;5.494;2023-04-26T20:15:26;101814.94;;;7.37;90.51
47897;BME280;39629;51.400;5.494;2023-04-26T20:20:27;101812.22;;;7.32;97.84
47897;BME280;39629;51.400;5.494;2023-04-26T20:25:30;101814.59;;;7.23;94.09
47897;BME280;39629;51.400;5.494;2023-04-26T20:30:32;101823.03;;;7.11;100.00
47897;BME280;39629;51.400;5.494;2023-04-26T20:35:33;101818.06;;;6.90;100.00
47897;BME280;39629;51.400;5.494;2023-04-26T20:40:36;101825.50;;;6.76;100.00
47897;BME280;39629;51.400;5.494;2023-04-26T20:45:38;101823.66;;;6.72;100.00
47897;BME280;39629;51.400;5.494;2023-04-26T20:50:40;101821.59;;;6.60;100.00
47897;BME280;39629;51.400;5.494;2023-04-26T20:55:43;101820.16;;;6.42;100.00
47897;BME280;39629;51.400;5.494;2023-04-26T21:00:47;101833.72;;;6.29;100.00
47897;BME280;39629;51.400;5.494;2023-04-26T21:05:49;101834.06;;;6.12;100.00
47897;BME280;39629;51.400;5.494;2023-04-26T21:10:52;101831.25;;;6.06;100.00
47897;BME280;39629;51.400;5.494;2023-04-26T21:15:53;101838.69;;;5.94;100.00
47897;BME280;39629;51.400;5.494;2023-04-26T21:20:55;101841.72;;;5.79;100.00
47897;BME280;39629;51.400;5.494;2023-04-26T21:25:58;101840.44;;;5.68;100.00
47897;BME280;39629;51.400;5.494;2023-04-26T21:31:00;101849.19;;;5.42;100.00
47897;BME280;39629;51.400;5.494;2023-04-26T21:36:04;101845.94;;;5.24;100.00
47897;BME280;39629;51.400;5.494;2023-04-26T21:41:07;101846.63;;;5.18;100.00
47897;BME280;39629;51.400;5.494;2023-04-26T21:46:08;101843.63;;;5.07;100.00
47897;BME280;39629;51.400;5.494;2023-04-26T21:51:11;101844.91;;;4.94;100.00
47897;BME280;39629;51.400;5.494;2023-04-26T21:56:13;101841.28;;;4.91;100.00
47897;BME280;39629;51.400;5.494;2023-04-26T22:01:15;101849.22;;;4.70;100.00
47897;BME280;39629;51.400;5.494;2023-04-26T22:06:16;101842.94;;;4.65;100.00
47897;BME280;39629;51.400;5.494;2023-04-26T22:11:19;101844.81;;;4.69;100.00
47897;BME280;39629;51.400;5.494;2023-04-26T22:16:21;101848.38;;;4.48;100.00
47897;BME280;39629;51.400;5.494;2023-04-26T22:21:23;101852.34;;;4.38;100.00
47897;BME280;39629;51.400;5.494;2023-04-26T22:26:26;101848.78;;;4.14;100.00
47897;BME280;39629;51.400;5.494;2023-04-26T22:31:27;101847.19;;;3.73;100.00
47897;BME280;39629;51.400;5.494;2023-04-26T22:36:29;101849.28;;;3.61;100.00
47897;BME280;39629;51.400;5.494;2023-04-26T22:41:32;101855.19;;;3.57;100.00
47897;BME280;39629;51.400;5.494;2023-04-26T22:46:35;101858.84;;;3.62;100.00
47897;BME280;39629;51.400;5.494;2023-04-26T22:51:36;101862.25;;;3.60;100.00
47897;BME280;39629;51.400;5.494;2023-04-26T22:56:39;101865.22;;;3.28;100.00
47897;BME280;39629;51.400;5.494;2023-04-26T23:01:41;101877.75;;;2.78;100.00
47897;BME280;39629;51.400;5.494;2023-04-26T23:06:42;101869.78;;;2.93;100.00
47897;BME280;39629;51.400;5.494;2023-04-26T23:11:45;101882.72;;;2.92;100.00
47897;BME280;39629;51.400;5.494;2023-04-26T23:16:47;101883.59;;;2.92;100.00
47897;BME280;39629;51.400;5.494;2023-04-26T23:21:49;101884.53;;;2.75;100.00
47897;BME280;39629;51.400;5.494;2023-04-26T23:26:52;101888.56;;;2.50;100.00
47897;BME280;39629;51.400;5.494;2023-04-26T23:31:54;101897.22;;;2.49;100.00
47897;BME280;39629;51.400;5.494;2023-04-26T23:36:55;101912.88;;;2.50;100.00
47897;BME280;39629;51.400;5.494;2023-04-26T23:41:59;101910.06;;;2.46;100.00
47897;BME280;39629;51.400;5.494;2023-04-26T23:47:01;101926.75;;;2.51;100.00
47897;BME280;39629;51.400;5.494;2023-04-26T23:52:03;101924.06;;;2.31;100.00
47897;BME280;39629;51.400;5.494;2023-04-26T23:57:06;101912.81;;;2.31;100.00
